James R Moran — WDB8932 — position and weather

sailwx.info

Track history (hours):
 
Tides and Currents Weather Stations Pressure Air Temp Water Temp Dewpoint Dewpoint Depression Visibility Wind Speed Wind Dir Waves Ship Positions

James R Moran

Owner: MORAN TOWING CORPORATION, Philadelphia, PA. More information available from US FCC via Universal Licensing System and Coast Guard Vessel Documentation Center.

Last reported at 2017-Dec-11 03:59 UTC. Time now 2017-Dec-11 04:30 UTC.
Position N 39°15' W 076°33'.

Length 26 m; draft 4.3 m.

Type: Tug. MMSI: 366966650.

Date/timePositionNaut miles runAvg speedWind from/ knotsBaromVisibWave heightAir tempDewpointWater temp
2017-Dec-11 03:59N 39°15' W 076°33'1 1.8
2017-Dec-11 03:30N 39°15' W 076°32'0 0.1
2017-Dec-11 03:00N 39°15' W 076°32'2 3.6
2017-Dec-11 02:30N 39°16' W 076°34'0 0.1
2017-Dec-11 02:00N 39°16' W 076°34'0 0.0
2017-Dec-11 01:31N 39°16' W 076°34'0 0.0
2017-Dec-11 01:00N 39°16' W 076°34'0 0.0
2017-Dec-11 00:30N 39°16' W 076°34'0 0.0
2017-Dec-11 00:00N 39°16' W 076°34'0 0.0
2017-Dec-10 23:30N 39°16' W 076°34'0 0.0
2017-Dec-10 23:01N 39°16' W 076°34'0 0.0
2017-Dec-10 22:30N 39°16' W 076°34'0 0.0
2017-Dec-10 22:01N 39°16' W 076°34'0 0.0
2017-Dec-10 21:30N 39°16' W 076°34'0 0.0
2017-Dec-10 21:01N 39°16' W 076°34'0 0.0
2017-Dec-10 20:30N 39°16' W 076°34'0 0.0
2017-Dec-10 20:01N 39°16' W 076°34'0 0.0
2017-Dec-10 19:31N 39°16' W 076°34'0 0.0
2017-Dec-10 19:00N 39°16' W 076°34'2 3.4
2017-Dec-10 18:30N 39°15' W 076°32'1 1.2
2017-Dec-10 17:59N 39°15' W 076°32'2 3.8
2017-Dec-10 17:30N 39°15' W 076°35'0 0.6
2017-Dec-10 17:00N 39°15' W 076°35'0 0.0
2017-Dec-10 16:30N 39°15' W 076°35'0 0.1
2017-Dec-10 16:00N 39°15' W 076°35'0 0.0
2017-Dec-10 15:30N 39°15' W 076°35'1 2.0
2017-Dec-10 15:00N 39°16' W 076°34'0 0.0
2017-Dec-10 14:30N 39°16' W 076°34'0 0.0
2017-Dec-10 14:00N 39°16' W 076°34'0 0.0
2017-Dec-10 13:30N 39°16' W 076°34'0 0.0
2017-Dec-10 13:00N 39°16' W 076°34'0 0.0
2017-Dec-10 12:30N 39°16' W 076°34'0 0.0
2017-Dec-10 12:00N 39°16' W 076°34'1 1.8
2017-Dec-10 11:30N 39°15' W 076°35'1 3.0
2017-Dec-10 11:00N 39°14' W 076°33'2 3.3
2017-Dec-10 10:30N 39°13' W 076°32'0 0.3
2017-Dec-10 10:00N 39°13' W 076°32'2 4.7
2017-Dec-10 09:30N 39°15' W 076°33'0 0.1
2017-Dec-10 09:00N 39°15' W 076°33'0 0.2
2017-Dec-10 08:30N 39°15' W 076°33'1 1.8
2017-Dec-10 08:00N 39°14' W 076°32'1 2.5
2017-Dec-10 07:30N 39°13' W 076°32'3 6.6
2017-Dec-10 07:00N 39°16' W 076°34'0 0.0
2017-Dec-10 06:30N 39°16' W 076°34'0 0.9
2017-Dec-10 06:00N 39°16' W 076°34'1 1.2
2017-Dec-10 05:30N 39°15' W 076°34'0 0.9
2017-Dec-10 05:00N 39°15' W 076°34'0 0.3
2017-Dec-10 04:30N 39°15' W 076°34'0 0.2
2017-Dec-10 04:00N 39°15' W 076°34'0 0.0
2017-Dec-10 03:30N 39°15' W 076°34'0 0.0
2017-Dec-10 03:00N 39°15' W 076°34'0 0.0
2017-Dec-10 02:30N 39°15' W 076°34'0 0.0
2017-Dec-10 02:00N 39°15' W 076°34'0 0.0
2017-Dec-10 01:30N 39°15' W 076°34'0 0.7
2017-Dec-10 01:00N 39°15' W 076°33'1 2.5
2017-Dec-10 00:30N 39°14' W 076°33'1 1.9
2017-Dec-10 00:00N 39°15' W 076°33'0 0.2
2017-Dec-09 23:30N 39°15' W 076°33'1 3.0
2017-Dec-09 23:00N 39°16' W 076°34'0 0.2
2017-Dec-09 22:30N 39°16' W 076°34'0 0.0
2017-Dec-09 22:00N 39°16' W 076°34'0 0.0
2017-Dec-09 21:30N 39°16' W 076°34'0 0.0
2017-Dec-09 21:00N 39°16' W 076°34'0 0.0
2017-Dec-09 20:30N 39°16' W 076°34'0 0.0
2017-Dec-09 20:00N 39°16' W 076°34'0 0.0
2017-Dec-09 19:30N 39°16' W 076°34'0 0.0
2017-Dec-09 19:00N 39°16' W 076°34'0 0.0
2017-Dec-09 18:30N 39°16' W 076°34'0 0.0
2017-Dec-09 18:00N 39°16' W 076°34'0 0.0
2017-Dec-09 17:30N 39°16' W 076°34'1 1.1
2017-Dec-09 17:00N 39°15' W 076°34'1 2.0
2017-Dec-09 16:30N 39°15' W 076°33'1 1.9
2017-Dec-09 16:00N 39°14' W 076°33'2 3.0
2017-Dec-09 15:30N 39°13' W 076°32'0 0.0
2017-Dec-09 15:00N 39°13' W 076°32'0 0.5
2017-Dec-09 14:30N 39°13' W 076°32'3 5.2
2017-Dec-09 14:00N 39°13' W 076°29'0 0.4
2017-Dec-09 13:29N 39°13' W 076°29'1 2.1
2017-Dec-09 12:53N 39°11' W 076°28'1 3.2
2017-Dec-09 12:30N 39°12' W 076°30'4 8.7
2017-Dec-09 12:00N 39°15' W 076°34'0 0.6
2017-Dec-09 11:30N 39°15' W 076°34'1 1.1
2017-Dec-09 11:00N 39°15' W 076°33'2 2.7
2017-Dec-09 10:27N 39°14' W 076°33'2 5.6
2017-Dec-09 10:00N 39°16' W 076°34'0 0.0
2017-Dec-09 09:30N 39°16' W 076°34'0 0.0
2017-Dec-09 09:01N 39°16' W 076°34'0 0.0
2017-Dec-09 08:31N 39°16' W 076°34'0 0.0
2017-Dec-09 08:01N 39°16' W 076°34'0 0.0
2017-Dec-09 07:30N 39°16' W 076°34'0 0.0
2017-Dec-09 07:01N 39°16' W 076°34'0 0.0
2017-Dec-09 06:30N 39°16' W 076°34'0 0.0
2017-Dec-09 06:01N 39°16' W 076°34'0 0.0
2017-Dec-09 05:31N 39°16' W 076°34'0 0.0
2017-Dec-09 05:01N 39°16' W 076°34'0 0.0
2017-Dec-09 04:31N 39°16' W 076°34'1 1.3
2017-Dec-09 04:01N 39°15' W 076°34'2 3.3
2017-Dec-09 03:24N 39°13' W 076°35'0 0.2
2017-Dec-09 03:00N 39°13' W 076°35'2 3.9
2017-Dec-09 02:30N 39°13' W 076°32'1 1.1
2017-Dec-09 02:00N 39°13' W 076°32'0 0.0
2017-Dec-09 01:30N 39°13' W 076°32'0 0.0
2017-Dec-09 01:01N 39°13' W 076°32'0 0.0
2017-Dec-09 00:30N 39°13' W 076°32'0 0.0
2017-Dec-09 00:01N 39°13' W 076°32'2 3.3
2017-Dec-08 23:28N 39°13' W 076°35'0 0.2
2017-Dec-08 22:51N 39°13' W 076°35'1 3.2
2017-Dec-08 22:31N 39°13' W 076°33'3 5.3
2017-Dec-08 22:00N 39°16' W 076°34'0 0.0
2017-Dec-08 21:30N 39°16' W 076°34'0 0.0
2017-Dec-08 21:01N 39°16' W 076°34'0 0.0
2017-Dec-08 20:31N 39°16' W 076°34'0 0.0
2017-Dec-08 20:00N 39°16' W 076°34'0 0.0
2017-Dec-08 19:30N 39°16' W 076°34'0 0.0
2017-Dec-08 19:01N 39°16' W 076°34'0 0.0
2017-Dec-08 18:30N 39°16' W 076°34'0 0.0
2017-Dec-08 18:00N 39°16' W 076°34'0 0.0
2017-Dec-08 17:31N 39°16' W 076°34'0 0.0
2017-Dec-08 17:00N 39°16' W 076°34'0 0.0
2017-Dec-08 16:30N 39°16' W 076°34'0 0.0
2017-Dec-08 16:01N 39°16' W 076°34'0 0.0
2017-Dec-08 15:31N 39°16' W 076°34'0 0.0
2017-Dec-08 15:01N 39°16' W 076°34'0 0.0
2017-Dec-08 14:30N 39°16' W 076°34'0 0.0
2017-Dec-08 14:00N 39°16' W 076°34'0 0.0
2017-Dec-08 13:30N 39°16' W 076°34'0 0.0
2017-Dec-08 13:00N 39°16' W 076°34'0 0.0
2017-Dec-08 12:31N 39°16' W 076°34'0 0.0
2017-Dec-08 12:00N 39°16' W 076°34'0 0.0
2017-Dec-08 11:31N 39°16' W 076°34'0 0.0
2017-Dec-08 11:00N 39°16' W 076°34'0 0.0
2017-Dec-08 10:31N 39°16' W 076°34'0 0.0
2017-Dec-08 10:00N 39°16' W 076°34'2 3.1
2017-Dec-08 09:31N 39°15' W 076°33'1 1.4
2017-Dec-08 09:01N 39°14' W 076°33'1 2.8
2017-Dec-08 08:30N 39°13' W 076°32'1 2.4
2017-Dec-08 08:00N 39°14' W 076°32'0 0.0
2017-Dec-08 07:30N 39°14' W 076°32'0 0.0
2017-Dec-08 07:01N 39°14' W 076°32'0 0.0
2017-Dec-08 06:31N 39°14' W 076°32'0 0.0
2017-Dec-08 06:00N 39°14' W 076°32'0 0.0
2017-Dec-08 05:31N 39°14' W 076°32'0 0.0
2017-Dec-08 05:00N 39°14' W 076°32'2 3.7
2017-Dec-08 04:30N 39°15' W 076°34'0 0.2
2017-Dec-08 04:01N 39°15' W 076°34'2 3.3
2017-Dec-08 03:30N 39°14' W 076°33'2 3.3
2017-Dec-08 03:01N 39°15' W 076°34'0 0.3
2017-Dec-08 02:31N 39°15' W 076°34'0 0.0
2017-Dec-08 02:00N 39°15' W 076°34'0 0.4
2017-Dec-08 01:31N 39°15' W 076°34'0 0.6
2017-Dec-08 01:00N 39°16' W 076°34'0 0.0
2017-Dec-08 00:31N 39°16' W 076°34'0 0.9
2017-Dec-08 00:01N 39°16' W 076°34'0 0.0
2017-Dec-07 23:30N 39°16' W 076°34'0 0.0
2017-Dec-07 23:01N 39°16' W 076°34'0 0.0
2017-Dec-07 22:31N 39°16' W 076°34'0 0.0
2017-Dec-07 22:01N 39°16' W 076°34'0 0.0
2017-Dec-07 21:31N 39°16' W 076°34'0 0.0
2017-Dec-07 21:01N 39°16' W 076°34'0 0.0
2017-Dec-07 20:31N 39°16' W 076°34'3 5.2
2017-Dec-07 20:01N 39°13' W 076°34'1 1.3
2017-Dec-07 19:30N 39°13' W 076°35'0 0.2
2017-Dec-07 18:59N 39°13' W 076°35'0 0.6
2017-Dec-07 18:30N 39°13' W 076°34'0 0.6
2017-Dec-07 18:00N 39°13' W 076°35'1 1.0
2017-Dec-07 17:30N 39°13' W 076°34'3 5.2
2017-Dec-07 17:00N 39°16' W 076°34'0 0.0
2017-Dec-07 16:31N 39°16' W 076°34'0 0.0
2017-Dec-07 16:00N 39°16' W 076°34'0 0.0
2017-Dec-07 15:30N 39°16' W 076°34'0 0.0
2017-Dec-07 15:01N 39°16' W 076°34'0 0.0
2017-Dec-07 14:31N 39°16' W 076°34'0 0.0
2017-Dec-07 14:00N 39°16' W 076°34'0 0.0
2017-Dec-07 13:31N 39°16' W 076°34'0 0.0
2017-Dec-07 13:00N 39°16' W 076°34'0 0.0
2017-Dec-07 12:31N 39°16' W 076°34'0 0.0
2017-Dec-07 12:00N 39°16' W 076°34'0 0.0
2017-Dec-07 11:31N 39°16' W 076°34'2 3.2
2017-Dec-07 11:01N 39°15' W 076°33'1 1.3
2017-Dec-07 10:31N 39°14' W 076°33'1 2.9
2017-Dec-07 10:00N 39°13' W 076°32'3 6.8
2017-Dec-07 09:31N 39°16' W 076°34'0 0.0
2017-Dec-07 09:01N 39°16' W 076°34'0 0.0
2017-Dec-07 08:31N 39°16' W 076°34'0 0.0
2017-Dec-07 08:00N 39°16' W 076°34'0 0.0
2017-Dec-07 07:30N 39°16' W 076°34'0 0.0
2017-Dec-07 07:00N 39°16' W 076°34'0 0.0
2017-Dec-07 06:30N 39°16' W 076°34'0 0.0
2017-Dec-07 06:00N 39°16' W 076°34'0 0.0
2017-Dec-07 05:30N 39°16' W 076°34'0 0.0
2017-Dec-07 05:00N 39°16' W 076°34'0 0.0
2017-Dec-07 04:31N 39°16' W 076°34'0 0.0
2017-Dec-07 04:01N 39°16' W 076°34'0 0.0
2017-Dec-07 03:30N 39°16' W 076°34'3 5.1
2017-Dec-07 03:00N 39°13' W 076°35'0 0.3
2017-Dec-07 02:30N 39°13' W 076°34'2 4.4
2017-Dec-07 02:00N 39°13' W 076°32'1 1.9
2017-Dec-07 01:30N 39°14' W 076°33'3 6.2
2017-Dec-07 01:00N 39°16' W 076°36'2 3.8
2017-Dec-07 00:30N 39°15' W 076°34'1 2.0
2017-Dec-07 00:00N 39°15' W 076°32'2 3.6
2017-Dec-06 23:30N 39°13' W 076°32'2 4.6
2017-Dec-06 23:00N 39°15' W 076°33'0 0.0
2017-Dec-06 22:30N 39°15' W 076°33'1 2.1
2017-Dec-06 22:00N 39°16' W 076°34'0 0.0
2017-Dec-06 21:30N 39°16' W 076°34'0 0.0
2017-Dec-06 21:00N 39°16' W 076°34'  
2017-Dec-04 10:29N 39°16' W 076°34'1 1.0
2017-Dec-04 10:00N 39°15' W 076°34'0 0.2
2017-Dec-04 09:30N 39°15' W 076°34'2 2.1
2017-Dec-04 08:47N 39°15' W 076°32'1 0.5
2017-Dec-04 07:37N 39°15' W 076°32'0 0.1
2017-Dec-04 07:30N 39°15' W 076°32'1 2.6
2017-Dec-04 07:00N 39°15' W 076°34'0 0.2
2017-Dec-04 06:30N 39°15' W 076°34'0 0.6
2017-Dec-04 06:00N 39°16' W 076°34'0 0.9
2017-Dec-04 05:30N 39°16' W 076°34'0 0.0
2017-Dec-04 05:00N 39°16' W 076°34'0 0.0
2017-Dec-04 04:30N 39°16' W 076°34'0 0.0
2017-Dec-04 04:00N 39°16' W 076°34'0 0.0
2017-Dec-04 03:30N 39°16' W 076°34'0 0.0
2017-Dec-04 03:00N 39°16' W 076°34'0 0.0
2017-Dec-04 02:30N 39°16' W 076°34'0 0.0
2017-Dec-04 02:00N 39°16' W 076°34'0 0.0
2017-Dec-04 01:30N 39°16' W 076°34'0 0.0
2017-Dec-04 01:00N 39°16' W 076°34'1 2.1
2017-Dec-04 00:30N 39°15' W 076°33'1 1.3
2017-Dec-04 00:00N 39°15' W 076°32'2 4.1
2017-Dec-03 23:30N 39°13' W 076°32'0 0.9
2017-Dec-03 23:00N 39°13' W 076°32'0 0.0
2017-Dec-03 22:30N 39°13' W 076°32'0 0.0
2017-Dec-03 22:00N 39°13' W 076°32'2 3.3
2017-Dec-03 21:30N 39°13' W 076°34'0 0.0
2017-Dec-03 21:00N 39°13' W 076°34'0 0.9
2017-Dec-03 20:30N 39°13' W 076°34'1 1.6
2017-Dec-03 19:59N 39°13' W 076°35'0 0.2
2017-Dec-03 19:29N 39°13' W 076°35'0 0.0
2017-Dec-03 19:00N 39°13' W 076°35'0 0.7
2017-Dec-03 18:30N 39°13' W 076°35'2 3.9
2017-Dec-03 18:00N 39°13' W 076°32'3 6.4
2017-Dec-03 17:30N 39°16' W 076°34'0 0.0
2017-Dec-03 17:00N 39°16' W 076°34'0 0.0
2017-Dec-03 16:30N 39°16' W 076°34'0 0.0
2017-Dec-03 16:00N 39°16' W 076°34'0 0.0
2017-Dec-03 15:30N 39°16' W 076°34'0 0.0
2017-Dec-03 15:00N 39°16' W 076°34'0 0.0
2017-Dec-03 14:30N 39°16' W 076°34'0 0.0
2017-Dec-03 14:00N 39°16' W 076°34'0 0.0
2017-Dec-03 13:30N 39°16' W 076°34'0 0.0
2017-Dec-03 13:00N 39°16' W 076°34'0 0.0
2017-Dec-03 12:30N 39°16' W 076°34'0 0.0
2017-Dec-03 12:00N 39°16' W 076°34'0 0.0
2017-Dec-03 11:30N 39°16' W 076°34'0 0.0
2017-Dec-03 11:00N 39°16' W 076°34'0 0.0
2017-Dec-03 10:30N 39°16' W 076°34'1 1.6
2017-Dec-03 10:00N 39°15' W 076°34'1 1.1
2017-Dec-03 09:30N 39°15' W 076°34'1 1.1
2017-Dec-03 09:00N 39°14' W 076°33'2 3.0
2017-Dec-03 08:30N 39°13' W 076°32'3 6.3
2017-Dec-03 08:00N 39°16' W 076°34'0 0.0
2017-Dec-03 07:30N 39°16' W 076°34'0 0.0
2017-Dec-03 07:00N 39°16' W 076°34'0 0.0
2017-Dec-03 06:30N 39°16' W 076°34'0 0.0
2017-Dec-03 06:00N 39°16' W 076°34'0 0.0
2017-Dec-03 05:30N 39°16' W 076°34'0 0.0
2017-Dec-03 05:00N 39°16' W 076°34'0 0.0
2017-Dec-03 04:30N 39°16' W 076°34'0 0.0
2017-Dec-03 04:00N 39°16' W 076°34'0 0.0
2017-Dec-03 03:30N 39°16' W 076°34'0 0.0
2017-Dec-03 03:00N 39°16' W 076°34'0 0.0
2017-Dec-03 02:30N 39°16' W 076°34'0 0.0
2017-Dec-03 02:00N 39°16' W 076°34'0 0.0
2017-Dec-03 01:29N 39°16' W 076°34'0 0.0
2017-Dec-03 01:00N 39°16' W 076°34'2 3.6
2017-Dec-03 00:30N 39°17' W 076°36'1 1.1
2017-Dec-03 00:00N 39°17' W 076°35'1 1.3
2017-Dec-02 23:30N 39°17' W 076°36'1 2.0
2017-Dec-02 23:00N 39°17' W 076°35'0 0.1
2017-Dec-02 22:30N 39°17' W 076°35'1 1.5
2017-Dec-02 22:00N 39°16' W 076°34'0 0.3
2017-Dec-02 21:30N 39°16' W 076°34'0 0.0
2017-Dec-02 21:00N 39°16' W 076°34'0 0.0
2017-Dec-02 20:30N 39°16' W 076°34'0 0.0
2017-Dec-02 20:00N 39°16' W 076°34'0 0.0
2017-Dec-02 19:30N 39°16' W 076°34'0 0.0
2017-Dec-02 19:00N 39°16' W 076°34'0 0.0
2017-Dec-02 18:30N 39°16' W 076°34'2 3.5
2017-Dec-02 18:00N 39°15' W 076°32'0 0.2
2017-Dec-02 17:30N 39°15' W 076°32'1 2.8
2017-Dec-02 17:00N 39°16' W 076°34'1 1.3
2017-Dec-02 16:30N 39°15' W 076°34'2 4.6
2017-Dec-02 16:00N 39°13' W 076°32'3 5.1
2017-Dec-02 15:30N 39°15' W 076°34'1 1.7
2017-Dec-02 15:00N 39°16' W 076°34'0 0.0
2017-Dec-02 14:30N 39°16' W 076°34'0 0.0
2017-Dec-02 14:00N 39°16' W 076°34'0 0.0
2017-Dec-02 13:30N 39°16' W 076°34'0 0.0
2017-Dec-02 13:00N 39°16' W 076°34'0 0.0
2017-Dec-02 12:30N 39°16' W 076°34'0 0.0
2017-Dec-02 12:00N 39°16' W 076°34'0 0.0
2017-Dec-02 11:30N 39°16' W 076°34'0 0.0
2017-Dec-02 11:00N 39°16' W 076°34'0 0.0
2017-Dec-02 10:30N 39°16' W 076°34'0 0.1
2017-Dec-02 10:00N 39°16' W 076°34'1 2.4
2017-Dec-02 09:30N 39°15' W 076°33'2 4.0
2017-Dec-02 09:00N 39°13' W 076°32'1 1.5
2017-Dec-02 08:21N 39°14' W 076°32'0 0.0
2017-Dec-02 08:00N 39°14' W 076°32'0 0.0
2017-Dec-02 07:30N 39°14' W 076°32'0 0.0
2017-Dec-02 06:56N 39°14' W 076°32'0 0.0
2017-Dec-02 06:30N 39°14' W 076°32'0 0.0
2017-Dec-02 06:00N 39°14' W 076°32'0 0.0
2017-Dec-02 05:28N 39°14' W 076°32'2 2.8
2017-Dec-02 04:54N 39°15' W 076°34'1 3.4
2017-Dec-02 04:30N 39°16' W 076°34'0 0.0
2017-Dec-02 04:00N 39°16' W 076°34'0 0.0
2017-Dec-02 03:30N 39°16' W 076°34'0 0.0
2017-Dec-02 03:00N 39°16' W 076°34'0 0.0
2017-Dec-02 02:30N 39°16' W 076°34'0 0.0
2017-Dec-02 02:00N 39°16' W 076°34'0 0.0
2017-Dec-02 01:30N 39°16' W 076°34'0 0.0
2017-Dec-02 01:00N 39°16' W 076°34'0 0.0
2017-Dec-02 00:30N 39°16' W 076°34'0 0.0
2017-Dec-02 00:00N 39°16' W 076°34'0 0.0
2017-Dec-01 23:30N 39°16' W 076°34'0 0.0
2017-Dec-01 23:00N 39°16' W 076°34'0 0.0
2017-Dec-01 22:30N 39°16' W 076°34'0 0.0
2017-Dec-01 22:00N 39°16' W 076°34'0 0.0
2017-Dec-01 21:30N 39°16' W 076°34'0 0.0
2017-Dec-01 21:00N 39°16' W 076°34'0 0.0
2017-Dec-01 20:30N 39°16' W 076°34'0 0.0
2017-Dec-01 20:00N 39°16' W 076°34'0 0.0
2017-Dec-01 19:30N 39°16' W 076°34'0 0.0
2017-Dec-01 19:00N 39°16' W 076°34'0 0.1
2017-Dec-01 18:30N 39°16' W 076°34'1 1.0
2017-Dec-01 18:00N 39°16' W 076°34'1 1.0
2017-Dec-01 17:30N 39°16' W 076°34'0 0.1
2017-Dec-01 17:00N 39°16' W 076°34'0 0.0
2017-Dec-01 16:30N 39°16' W 076°34'2 3.4
2017-Dec-01 16:00N 39°15' W 076°32'2 3.5
2017-Dec-01 15:30N 39°13' W 076°32'3 5.4
2017-Dec-01 15:00N 39°15' W 076°34'0 0.9
2017-Dec-01 14:30N 39°16' W 076°34'0 0.0
2017-Dec-01 14:00N 39°16' W 076°34'0 0.0
2017-Dec-01 13:30N 39°16' W 076°34'0 0.0
2017-Dec-01 13:00N 39°16' W 076°34'0 0.0
2017-Dec-01 12:30N 39°16' W 076°34'0 0.0
2017-Dec-01 12:00N 39°16' W 076°34'0 0.0
2017-Dec-01 11:30N 39°16' W 076°34'0 0.0
2017-Dec-01 11:00N 39°16' W 076°34'0 0.0
2017-Dec-01 10:30N 39°16' W 076°34'0 0.0
2017-Dec-01 10:00N 39°16' W 076°34'3 5.2
2017-Dec-01 09:30N 39°14' W 076°31'1 1.2
2017-Dec-01 09:00N 39°14' W 076°32'1 2.9
2017-Dec-01 08:30N 39°15' W 076°34'1 1.7
2017-Dec-01 08:00N 39°15' W 076°32'2 3.3
2017-Dec-01 07:30N 39°16' W 076°34'0 0.0
2017-Dec-01 07:00N 39°16' W 076°34'0 0.0
2017-Dec-01 06:30N 39°16' W 076°34'0 0.0
2017-Dec-01 06:00N 39°16' W 076°34'0 0.0
2017-Dec-01 05:30N 39°16' W 076°34'0 0.0
2017-Dec-01 05:00N 39°16' W 076°34'0 0.0
2017-Dec-01 04:30N 39°16' W 076°34'0 0.0
2017-Dec-01 04:00N 39°16' W 076°34'  
Track history (hours):
 
Tides and Currents Weather Stations Pressure Air Temp Water Temp Dewpoint Dewpoint Depression Visibility Wind Speed Wind Dir Waves Ship Positions

James R Moran

Owner: MORAN TOWING CORPORATION, Philadelphia, PA. More information available from US FCC via Universal Licensing System and Coast Guard Vessel Documentation Center.

Last reported at 2017-Dec-11 03:59 UTC. Time now 2017-Dec-11 04:30 UTC.
Position N 39°15' W 076°33'.

Length 26 m; draft 4.3 m.

Type: Tug. MMSI: 366966650.

Date/timePositionNaut miles runAvg speedWind from/ knotsBaromVisibWave heightAir tempDewpointWater temp
2017-Dec-11 03:59N 39°15' W 076°33'1 1.8
2017-Dec-11 03:30N 39°15' W 076°32'0 0.1
2017-Dec-11 03:00N 39°15' W 076°32'2 3.6
2017-Dec-11 02:30N 39°16' W 076°34'0 0.1
2017-Dec-11 02:00N 39°16' W 076°34'0 0.0
2017-Dec-11 01:31N 39°16' W 076°34'0 0.0
2017-Dec-11 01:00N 39°16' W 076°34'0 0.0
2017-Dec-11 00:30N 39°16' W 076°34'0 0.0
2017-Dec-11 00:00N 39°16' W 076°34'0 0.0
2017-Dec-10 23:30N 39°16' W 076°34'0 0.0
2017-Dec-10 23:01N 39°16' W 076°34'0 0.0
2017-Dec-10 22:30N 39°16' W 076°34'0 0.0
2017-Dec-10 22:01N 39°16' W 076°34'0 0.0
2017-Dec-10 21:30N 39°16' W 076°34'0 0.0
2017-Dec-10 21:01N 39°16' W 076°34'0 0.0
2017-Dec-10 20:30N 39°16' W 076°34'0 0.0
2017-Dec-10 20:01N 39°16' W 076°34'0 0.0
2017-Dec-10 19:31N 39°16' W 076°34'0 0.0
2017-Dec-10 19:00N 39°16' W 076°34'2 3.4
2017-Dec-10 18:30N 39°15' W 076°32'1 1.2
2017-Dec-10 17:59N 39°15' W 076°32'2 3.8
2017-Dec-10 17:30N 39°15' W 076°35'0 0.6
2017-Dec-10 17:00N 39°15' W 076°35'0 0.0
2017-Dec-10 16:30N 39°15' W 076°35'0 0.1
2017-Dec-10 16:00N 39°15' W 076°35'0 0.0
2017-Dec-10 15:30N 39°15' W 076°35'1 2.0
2017-Dec-10 15:00N 39°16' W 076°34'0 0.0
2017-Dec-10 14:30N 39°16' W 076°34'0 0.0
2017-Dec-10 14:00N 39°16' W 076°34'0 0.0
2017-Dec-10 13:30N 39°16' W 076°34'0 0.0
2017-Dec-10 13:00N 39°16' W 076°34'0 0.0
2017-Dec-10 12:30N 39°16' W 076°34'0 0.0
2017-Dec-10 12:00N 39°16' W 076°34'1 1.8
2017-Dec-10 11:30N 39°15' W 076°35'1 3.0
2017-Dec-10 11:00N 39°14' W 076°33'2 3.3
2017-Dec-10 10:30N 39°13' W 076°32'0 0.3
2017-Dec-10 10:00N 39°13' W 076°32'2 4.7
2017-Dec-10 09:30N 39°15' W 076°33'0 0.1
2017-Dec-10 09:00N 39°15' W 076°33'0 0.2
2017-Dec-10 08:30N 39°15' W 076°33'1 1.8
2017-Dec-10 08:00N 39°14' W 076°32'1 2.5
2017-Dec-10 07:30N 39°13' W 076°32'3 6.6
2017-Dec-10 07:00N 39°16' W 076°34'0 0.0
2017-Dec-10 06:30N 39°16' W 076°34'0 0.9
2017-Dec-10 06:00N 39°16' W 076°34'1 1.2
2017-Dec-10 05:30N 39°15' W 076°34'0 0.9
2017-Dec-10 05:00N 39°15' W 076°34'0 0.3
2017-Dec-10 04:30N 39°15' W 076°34'0 0.2
2017-Dec-10 04:00N 39°15' W 076°34'0 0.0
2017-Dec-10 03:30N 39°15' W 076°34'0 0.0
2017-Dec-10 03:00N 39°15' W 076°34'0 0.0
2017-Dec-10 02:30N 39°15' W 076°34'0 0.0
2017-Dec-10 02:00N 39°15' W 076°34'0 0.0
2017-Dec-10 01:30N 39°15' W 076°34'0 0.7
2017-Dec-10 01:00N 39°15' W 076°33'1 2.5
2017-Dec-10 00:30N 39°14' W 076°33'1 1.9
2017-Dec-10 00:00N 39°15' W 076°33'0 0.2
2017-Dec-09 23:30N 39°15' W 076°33'1 3.0
2017-Dec-09 23:00N 39°16' W 076°34'0 0.2
2017-Dec-09 22:30N 39°16' W 076°34'0 0.0
2017-Dec-09 22:00N 39°16' W 076°34'0 0.0
2017-Dec-09 21:30N 39°16' W 076°34'0 0.0
2017-Dec-09 21:00N 39°16' W 076°34'0 0.0
2017-Dec-09 20:30N 39°16' W 076°34'0 0.0
2017-Dec-09 20:00N 39°16' W 076°34'0 0.0
2017-Dec-09 19:30N 39°16' W 076°34'0 0.0
2017-Dec-09 19:00N 39°16' W 076°34'0 0.0
2017-Dec-09 18:30N 39°16' W 076°34'0 0.0
2017-Dec-09 18:00N 39°16' W 076°34'0 0.0
2017-Dec-09 17:30N 39°16' W 076°34'1 1.1
2017-Dec-09 17:00N 39°15' W 076°34'1 2.0
2017-Dec-09 16:30N 39°15' W 076°33'1 1.9
2017-Dec-09 16:00N 39°14' W 076°33'2 3.0
2017-Dec-09 15:30N 39°13' W 076°32'0 0.0
2017-Dec-09 15:00N 39°13' W 076°32'0 0.5
2017-Dec-09 14:30N 39°13' W 076°32'3 5.2
2017-Dec-09 14:00N 39°13' W 076°29'0 0.4
2017-Dec-09 13:29N 39°13' W 076°29'1 2.1
2017-Dec-09 12:53N 39°11' W 076°28'1 3.2
2017-Dec-09 12:30N 39°12' W 076°30'4 8.7
2017-Dec-09 12:00N 39°15' W 076°34'0 0.6
2017-Dec-09 11:30N 39°15' W 076°34'1 1.1
2017-Dec-09 11:00N 39°15' W 076°33'2 2.7
2017-Dec-09 10:27N 39°14' W 076°33'2 5.6
2017-Dec-09 10:00N 39°16' W 076°34'0 0.0
2017-Dec-09 09:30N 39°16' W 076°34'0 0.0
2017-Dec-09 09:01N 39°16' W 076°34'0 0.0
2017-Dec-09 08:31N 39°16' W 076°34'0 0.0
2017-Dec-09 08:01N 39°16' W 076°34'0 0.0
2017-Dec-09 07:30N 39°16' W 076°34'0 0.0
2017-Dec-09 07:01N 39°16' W 076°34'0 0.0
2017-Dec-09 06:30N 39°16' W 076°34'0 0.0
2017-Dec-09 06:01N 39°16' W 076°34'0 0.0
2017-Dec-09 05:31N 39°16' W 076°34'0 0.0
2017-Dec-09 05:01N 39°16' W 076°34'0 0.0
2017-Dec-09 04:31N 39°16' W 076°34'1 1.3
2017-Dec-09 04:01N 39°15' W 076°34'2 3.3
2017-Dec-09 03:24N 39°13' W 076°35'0 0.2
2017-Dec-09 03:00N 39°13' W 076°35'2 3.9
2017-Dec-09 02:30N 39°13' W 076°32'1 1.1
2017-Dec-09 02:00N 39°13' W 076°32'0 0.0
2017-Dec-09 01:30N 39°13' W 076°32'0 0.0
2017-Dec-09 01:01N 39°13' W 076°32'0 0.0
2017-Dec-09 00:30N 39°13' W 076°32'0 0.0
2017-Dec-09 00:01N 39°13' W 076°32'2 3.3
2017-Dec-08 23:28N 39°13' W 076°35'0 0.2
2017-Dec-08 22:51N 39°13' W 076°35'1 3.2
2017-Dec-08 22:31N 39°13' W 076°33'3 5.3
2017-Dec-08 22:00N 39°16' W 076°34'0 0.0
2017-Dec-08 21:30N 39°16' W 076°34'0 0.0
2017-Dec-08 21:01N 39°16' W 076°34'0 0.0
2017-Dec-08 20:31N 39°16' W 076°34'0 0.0
2017-Dec-08 20:00N 39°16' W 076°34'0 0.0
2017-Dec-08 19:30N 39°16' W 076°34'0 0.0
2017-Dec-08 19:01N 39°16' W 076°34'0 0.0
2017-Dec-08 18:30N 39°16' W 076°34'0 0.0
2017-Dec-08 18:00N 39°16' W 076°34'0 0.0
2017-Dec-08 17:31N 39°16' W 076°34'0 0.0
2017-Dec-08 17:00N 39°16' W 076°34'0 0.0
2017-Dec-08 16:30N 39°16' W 076°34'0 0.0
2017-Dec-08 16:01N 39°16' W 076°34'0 0.0
2017-Dec-08 15:31N 39°16' W 076°34'0 0.0
2017-Dec-08 15:01N 39°16' W 076°34'0 0.0
2017-Dec-08 14:30N 39°16' W 076°34'0 0.0
2017-Dec-08 14:00N 39°16' W 076°34'0 0.0
2017-Dec-08 13:30N 39°16' W 076°34'0 0.0
2017-Dec-08 13:00N 39°16' W 076°34'0 0.0
2017-Dec-08 12:31N 39°16' W 076°34'0 0.0
2017-Dec-08 12:00N 39°16' W 076°34'0 0.0
2017-Dec-08 11:31N 39°16' W 076°34'0 0.0
2017-Dec-08 11:00N 39°16' W 076°34'0 0.0
2017-Dec-08 10:31N 39°16' W 076°34'0 0.0
2017-Dec-08 10:00N 39°16' W 076°34'2 3.1
2017-Dec-08 09:31N 39°15' W 076°33'1 1.4
2017-Dec-08 09:01N 39°14' W 076°33'1 2.8
2017-Dec-08 08:30N 39°13' W 076°32'1 2.4
2017-Dec-08 08:00N 39°14' W 076°32'0 0.0
2017-Dec-08 07:30N 39°14' W 076°32'0 0.0
2017-Dec-08 07:01N 39°14' W 076°32'0 0.0
2017-Dec-08 06:31N 39°14' W 076°32'0 0.0
2017-Dec-08 06:00N 39°14' W 076°32'0 0.0
2017-Dec-08 05:31N 39°14' W 076°32'0 0.0
2017-Dec-08 05:00N 39°14' W 076°32'2 3.7
2017-Dec-08 04:30N 39°15' W 076°34'0 0.2
2017-Dec-08 04:01N 39°15' W 076°34'2 3.3
2017-Dec-08 03:30N 39°14' W 076°33'2 3.3
2017-Dec-08 03:01N 39°15' W 076°34'0 0.3
2017-Dec-08 02:31N 39°15' W 076°34'0 0.0
2017-Dec-08 02:00N 39°15' W 076°34'0 0.4
2017-Dec-08 01:31N 39°15' W 076°34'0 0.6
2017-Dec-08 01:00N 39°16' W 076°34'0 0.0
2017-Dec-08 00:31N 39°16' W 076°34'0 0.9
2017-Dec-08 00:01N 39°16' W 076°34'0 0.0
2017-Dec-07 23:30N 39°16' W 076°34'0 0.0
2017-Dec-07 23:01N 39°16' W 076°34'0 0.0
2017-Dec-07 22:31N 39°16' W 076°34'0 0.0
2017-Dec-07 22:01N 39°16' W 076°34'0 0.0
2017-Dec-07 21:31N 39°16' W 076°34'0 0.0
2017-Dec-07 21:01N 39°16' W 076°34'0 0.0
2017-Dec-07 20:31N 39°16' W 076°34'3 5.2
2017-Dec-07 20:01N 39°13' W 076°34'1 1.3
2017-Dec-07 19:30N 39°13' W 076°35'0 0.2
2017-Dec-07 18:59N 39°13' W 076°35'0 0.6
2017-Dec-07 18:30N 39°13' W 076°34'0 0.6
2017-Dec-07 18:00N 39°13' W 076°35'1 1.0
2017-Dec-07 17:30N 39°13' W 076°34'3 5.2
2017-Dec-07 17:00N 39°16' W 076°34'0 0.0
2017-Dec-07 16:31N 39°16' W 076°34'0 0.0
2017-Dec-07 16:00N 39°16' W 076°34'0 0.0
2017-Dec-07 15:30N 39°16' W 076°34'0 0.0
2017-Dec-07 15:01N 39°16' W 076°34'0 0.0
2017-Dec-07 14:31N 39°16' W 076°34'0 0.0
2017-Dec-07 14:00N 39°16' W 076°34'0 0.0
2017-Dec-07 13:31N 39°16' W 076°34'0 0.0
2017-Dec-07 13:00N 39°16' W 076°34'0 0.0
2017-Dec-07 12:31N 39°16' W 076°34'0 0.0
2017-Dec-07 12:00N 39°16' W 076°34'0 0.0
2017-Dec-07 11:31N 39°16' W 076°34'2 3.2
2017-Dec-07 11:01N 39°15' W 076°33'1 1.3
2017-Dec-07 10:31N 39°14' W 076°33'1 2.9
2017-Dec-07 10:00N 39°13' W 076°32'3 6.8
2017-Dec-07 09:31N 39°16' W 076°34'0 0.0
2017-Dec-07 09:01N 39°16' W 076°34'0 0.0
2017-Dec-07 08:31N 39°16' W 076°34'0 0.0
2017-Dec-07 08:00N 39°16' W 076°34'0 0.0
2017-Dec-07 07:30N 39°16' W 076°34'0 0.0
2017-Dec-07 07:00N 39°16' W 076°34'0 0.0
2017-Dec-07 06:30N 39°16' W 076°34'0 0.0
2017-Dec-07 06:00N 39°16' W 076°34'0 0.0
2017-Dec-07 05:30N 39°16' W 076°34'0 0.0
2017-Dec-07 05:00N 39°16' W 076°34'0 0.0
2017-Dec-07 04:31N 39°16' W 076°34'0 0.0
2017-Dec-07 04:01N 39°16' W 076°34'0 0.0
2017-Dec-07 03:30N 39°16' W 076°34'3 5.1
2017-Dec-07 03:00N 39°13' W 076°35'0 0.3
2017-Dec-07 02:30N 39°13' W 076°34'2 4.4
2017-Dec-07 02:00N 39°13' W 076°32'1 1.9
2017-Dec-07 01:30N 39°14' W 076°33'3 6.2
2017-Dec-07 01:00N 39°16' W 076°36'2 3.8
2017-Dec-07 00:30N 39°15' W 076°34'1 2.0
2017-Dec-07 00:00N 39°15' W 076°32'2 3.6
2017-Dec-06 23:30N 39°13' W 076°32'2 4.6
2017-Dec-06 23:00N 39°15' W 076°33'0 0.0
2017-Dec-06 22:30N 39°15' W 076°33'1 2.1
2017-Dec-06 22:00N 39°16' W 076°34'0 0.0
2017-Dec-06 21:30N 39°16' W 076°34'0 0.0
2017-Dec-06 21:00N 39°16' W 076°34'  
2017-Dec-04 10:29N 39°16' W 076°34'1 1.0
2017-Dec-04 10:00N 39°15' W 076°34'0 0.2
2017-Dec-04 09:30N 39°15' W 076°34'2 2.1
2017-Dec-04 08:47N 39°15' W 076°32'1 0.5
2017-Dec-04 07:37N 39°15' W 076°32'0 0.1
2017-Dec-04 07:30N 39°15' W 076°32'1 2.6
2017-Dec-04 07:00N 39°15' W 076°34'0 0.2
2017-Dec-04 06:30N 39°15' W 076°34'0 0.6
2017-Dec-04 06:00N 39°16' W 076°34'0 0.9
2017-Dec-04 05:30N 39°16' W 076°34'0 0.0
2017-Dec-04 05:00N 39°16' W 076°34'0 0.0
2017-Dec-04 04:30N 39°16' W 076°34'0 0.0
2017-Dec-04 04:00N 39°16' W 076°34'0 0.0
2017-Dec-04 03:30N 39°16' W 076°34'0 0.0
2017-Dec-04 03:00N 39°16' W 076°34'0 0.0
2017-Dec-04 02:30N 39°16' W 076°34'0 0.0
2017-Dec-04 02:00N 39°16' W 076°34'0 0.0
2017-Dec-04 01:30N 39°16' W 076°34'0 0.0
2017-Dec-04 01:00N 39°16' W 076°34'1 2.1
2017-Dec-04 00:30N 39°15' W 076°33'1 1.3
2017-Dec-04 00:00N 39°15' W 076°32'2 4.1
2017-Dec-03 23:30N 39°13' W 076°32'0 0.9
2017-Dec-03 23:00N 39°13' W 076°32'0 0.0
2017-Dec-03 22:30N 39°13' W 076°32'0 0.0
2017-Dec-03 22:00N 39°13' W 076°32'2 3.3
2017-Dec-03 21:30N 39°13' W 076°34'0 0.0
2017-Dec-03 21:00N 39°13' W 076°34'0 0.9
2017-Dec-03 20:30N 39°13' W 076°34'1 1.6
2017-Dec-03 19:59N 39°13' W 076°35'0 0.2
2017-Dec-03 19:29N 39°13' W 076°35'0 0.0
2017-Dec-03 19:00N 39°13' W 076°35'0 0.7
2017-Dec-03 18:30N 39°13' W 076°35'2 3.9
2017-Dec-03 18:00N 39°13' W 076°32'3 6.4
2017-Dec-03 17:30N 39°16' W 076°34'0 0.0
2017-Dec-03 17:00N 39°16' W 076°34'0 0.0
2017-Dec-03 16:30N 39°16' W 076°34'0 0.0
2017-Dec-03 16:00N 39°16' W 076°34'0 0.0
2017-Dec-03 15:30N 39°16' W 076°34'0 0.0
2017-Dec-03 15:00N 39°16' W 076°34'0 0.0
2017-Dec-03 14:30N 39°16' W 076°34'0 0.0
2017-Dec-03 14:00N 39°16' W 076°34'0 0.0
2017-Dec-03 13:30N 39°16' W 076°34'0 0.0
2017-Dec-03 13:00N 39°16' W 076°34'0 0.0
2017-Dec-03 12:30N 39°16' W 076°34'0 0.0
2017-Dec-03 12:00N 39°16' W 076°34'0 0.0
2017-Dec-03 11:30N 39°16' W 076°34'0 0.0
2017-Dec-03 11:00N 39°16' W 076°34'0 0.0
2017-Dec-03 10:30N 39°16' W 076°34'1 1.6
2017-Dec-03 10:00N 39°15' W 076°34'1 1.1
2017-Dec-03 09:30N 39°15' W 076°34'1 1.1
2017-Dec-03 09:00N 39°14' W 076°33'2 3.0
2017-Dec-03 08:30N 39°13' W 076°32'3 6.3
2017-Dec-03 08:00N 39°16' W 076°34'0 0.0
2017-Dec-03 07:30N 39°16' W 076°34'0 0.0
2017-Dec-03 07:00N 39°16' W 076°34'0 0.0
2017-Dec-03 06:30N 39°16' W 076°34'0 0.0
2017-Dec-03 06:00N 39°16' W 076°34'0 0.0
2017-Dec-03 05:30N 39°16' W 076°34'0 0.0
2017-Dec-03 05:00N 39°16' W 076°34'0 0.0
2017-Dec-03 04:30N 39°16' W 076°34'0 0.0
2017-Dec-03 04:00N 39°16' W 076°34'0 0.0
2017-Dec-03 03:30N 39°16' W 076°34'0 0.0
2017-Dec-03 03:00N 39°16' W 076°34'0 0.0
2017-Dec-03 02:30N 39°16' W 076°34'0 0.0
2017-Dec-03 02:00N 39°16' W 076°34'0 0.0
2017-Dec-03 01:29N 39°16' W 076°34'0 0.0
2017-Dec-03 01:00N 39°16' W 076°34'2 3.6
2017-Dec-03 00:30N 39°17' W 076°36'1 1.1
2017-Dec-03 00:00N 39°17' W 076°35'1 1.3
2017-Dec-02 23:30N 39°17' W 076°36'1 2.0
2017-Dec-02 23:00N 39°17' W 076°35'0 0.1
2017-Dec-02 22:30N 39°17' W 076°35'1 1.5
2017-Dec-02 22:00N 39°16' W 076°34'0 0.3
2017-Dec-02 21:30N 39°16' W 076°34'0 0.0
2017-Dec-02 21:00N 39°16' W 076°34'0 0.0
2017-Dec-02 20:30N 39°16' W 076°34'0 0.0
2017-Dec-02 20:00N 39°16' W 076°34'0 0.0
2017-Dec-02 19:30N 39°16' W 076°34'0 0.0
2017-Dec-02 19:00N 39°16' W 076°34'0 0.0
2017-Dec-02 18:30N 39°16' W 076°34'2 3.5
2017-Dec-02 18:00N 39°15' W 076°32'0 0.2
2017-Dec-02 17:30N 39°15' W 076°32'1 2.8
2017-Dec-02 17:00N 39°16' W 076°34'1 1.3
2017-Dec-02 16:30N 39°15' W 076°34'2 4.6
2017-Dec-02 16:00N 39°13' W 076°32'3 5.1
2017-Dec-02 15:30N 39°15' W 076°34'1 1.7
2017-Dec-02 15:00N 39°16' W 076°34'0 0.0
2017-Dec-02 14:30N 39°16' W 076°34'0 0.0
2017-Dec-02 14:00N 39°16' W 076°34'0 0.0
2017-Dec-02 13:30N 39°16' W 076°34'0 0.0
2017-Dec-02 13:00N 39°16' W 076°34'0 0.0
2017-Dec-02 12:30N 39°16' W 076°34'0 0.0
2017-Dec-02 12:00N 39°16' W 076°34'0 0.0
2017-Dec-02 11:30N 39°16' W 076°34'0 0.0
2017-Dec-02 11:00N 39°16' W 076°34'0 0.0
2017-Dec-02 10:30N 39°16' W 076°34'0 0.1
2017-Dec-02 10:00N 39°16' W 076°34'1 2.4
2017-Dec-02 09:30N 39°15' W 076°33'2 4.0
2017-Dec-02 09:00N 39°13' W 076°32'1 1.5
2017-Dec-02 08:21N 39°14' W 076°32'0 0.0
2017-Dec-02 08:00N 39°14' W 076°32'0 0.0
2017-Dec-02 07:30N 39°14' W 076°32'0 0.0
2017-Dec-02 06:56N 39°14' W 076°32'0 0.0
2017-Dec-02 06:30N 39°14' W 076°32'0 0.0
2017-Dec-02 06:00N 39°14' W 076°32'0 0.0
2017-Dec-02 05:28N 39°14' W 076°32'2 2.8
2017-Dec-02 04:54N 39°15' W 076°34'1 3.4
2017-Dec-02 04:30N 39°16' W 076°34'0 0.0
2017-Dec-02 04:00N 39°16' W 076°34'0 0.0
2017-Dec-02 03:30N 39°16' W 076°34'0 0.0
2017-Dec-02 03:00N 39°16' W 076°34'0 0.0
2017-Dec-02 02:30N 39°16' W 076°34'0 0.0
2017-Dec-02 02:00N 39°16' W 076°34'0 0.0
2017-Dec-02 01:30N 39°16' W 076°34'0 0.0
2017-Dec-02 01:00N 39°16' W 076°34'0 0.0
2017-Dec-02 00:30N 39°16' W 076°34'0 0.0
2017-Dec-02 00:00N 39°16' W 076°34'0 0.0
2017-Dec-01 23:30N 39°16' W 076°34'0 0.0
2017-Dec-01 23:00N 39°16' W 076°34'0 0.0
2017-Dec-01 22:30N 39°16' W 076°34'0 0.0
2017-Dec-01 22:00N 39°16' W 076°34'0 0.0
2017-Dec-01 21:30N 39°16' W 076°34'0 0.0
2017-Dec-01 21:00N 39°16' W 076°34'0 0.0
2017-Dec-01 20:30N 39°16' W 076°34'0 0.0
2017-Dec-01 20:00N 39°16' W 076°34'0 0.0
2017-Dec-01 19:30N 39°16' W 076°34'0 0.0
2017-Dec-01 19:00N 39°16' W 076°34'0 0.1
2017-Dec-01 18:30N 39°16' W 076°34'1 1.0
2017-Dec-01 18:00N 39°16' W 076°34'1 1.0
2017-Dec-01 17:30N 39°16' W 076°34'0 0.1
2017-Dec-01 17:00N 39°16' W 076°34'0 0.0
2017-Dec-01 16:30N 39°16' W 076°34'2 3.4
2017-Dec-01 16:00N 39°15' W 076°32'2 3.5
2017-Dec-01 15:30N 39°13' W 076°32'3 5.4
2017-Dec-01 15:00N 39°15' W 076°34'0 0.9
2017-Dec-01 14:30N 39°16' W 076°34'0 0.0
2017-Dec-01 14:00N 39°16' W 076°34'0 0.0
2017-Dec-01 13:30N 39°16' W 076°34'0 0.0
2017-Dec-01 13:00N 39°16' W 076°34'0 0.0
2017-Dec-01 12:30N 39°16' W 076°34'0 0.0
2017-Dec-01 12:00N 39°16' W 076°34'0 0.0
2017-Dec-01 11:30N 39°16' W 076°34'0 0.0
2017-Dec-01 11:00N 39°16' W 076°34'0 0.0
2017-Dec-01 10:30N 39°16' W 076°34'0 0.0
2017-Dec-01 10:00N 39°16' W 076°34'3 5.2
2017-Dec-01 09:30N 39°14' W 076°31'1 1.2
2017-Dec-01 09:00N 39°14' W 076°32'1 2.9
2017-Dec-01 08:30N 39°15' W 076°34'1 1.7
2017-Dec-01 08:00N 39°15' W 076°32'2 3.3
2017-Dec-01 07:30N 39°16' W 076°34'0 0.0
2017-Dec-01 07:00N 39°16' W 076°34'0 0.0
2017-Dec-01 06:30N 39°16' W 076°34'0 0.0
2017-Dec-01 06:00N 39°16' W 076°34'0 0.0
2017-Dec-01 05:30N 39°16' W 076°34'0 0.0
2017-Dec-01 05:00N 39°16' W 076°34'0 0.0
2017-Dec-01 04:30N 39°16' W 076°34'0 0.0
2017-Dec-01 04:00N 39°16' W 076°34'  

Dump ship's entire track history